Latest Weather Observations for Kingaroy

IDQ60801

Issued at 8:35 am EST Saturday 25 October 2014 (issued every 30 minutes, with the page automatically refreshed every 10 minutes)

About weather observations | Map of weather stations | Latest weather observations for QLD | Other Formats
Station Details ID: 040922 Name: KINGAROY AIRPORT Lat: -26.57 Lon: 151.84 Height: 433.67 m
Data from the previous 72 hours. | See also: Recent months at Kingaroy
Date/Time
EST
Temp
°C
App
Temp
°C
Dew
Point
Rel
Hum
%
Delta-T
°C
Wind Press
QNH
hPa
Press
MSL
hPa
Rain
since 9 am
mm
Dir
 
Spd
km/h
Gust
km/h
Spd
kts
Gust
kts
25/08:30am 20.4 17.0 12.6 61 4.5 NNW 22 28 12 15 1022.5 1021.0 0.0
25/08:00am 19.4 16.6 12.7 65 3.8 NW 19 22 10 12 1022.8 1021.3 0.0
25/07:30am 18.2 16.2 12.6 70 3.2 NW 15 22 8 12 1022.9 1021.4 0.0
25/07:00am 16.5 15.6 12.7 78 2.1 NNW 9 15 5 8 1022.7 1021.2 0.0
25/06:30am 14.6 15.1 11.6 82 1.6 CALM 0 0 0 0 1022.5 1021.0 0.0
25/06:00am 12.8 13.2 11.2 90 0.9 CALM 0 0 0 0 1022.4 1020.9 0.0
25/05:30am 12.0 11.5 10.6 91 0.7 SE 4 6 2 3 1021.9 1020.4 0.0
25/05:00am 11.6 11.6 9.9 89 0.9 CALM 0 0 0 0 1021.6 1020.0 0.0
25/04:30am 12.1 12.1 9.8 86 1.2 CALM 0 0 0 0 1021.1 1019.6 0.0
25/04:00am 13.1 13.5 11.2 88 1.0 CALM 0 0 0 0 1020.9 1019.4 0.0
25/03:30am 13.4 13.2 10.4 82 1.6 NNW 2 6 1 3 1020.6 1019.1 0.0
25/03:00am 13.7 14.0 10.9 83 1.5 CALM 0 0 0 0 1020.4 1018.9 0.0
25/02:30am 14.9 13.8 12.0 83 1.6 N 9 17 5 9 1020.1 1018.6 0.0
25/02:00am 14.5 13.4 11.8 84 1.5 N 9 11 5 6 1020.3 1018.8 0.0
25/01:30am 14.3 14.7 11.3 82 1.6 CALM 0 0 0 0 1020.7 1019.2 0.0
25/01:00am 14.9 15.0 11.5 80 1.9 NNW 2 6 1 3 1021.1 1019.6 0.0
25/12:30am 15.4 14.8 11.8 79 2.0 NNE 6 11 3 6 1021.4 1019.8 0.0
25/12:00am 15.5 14.9 11.7 78 2.1 NE 6 11 3 6 1021.9 1020.4 0.0
 
Date/Time
EST
Temp
°C
App
Temp
°C
Dew
Point
Rel
Hum
%
Delta-T
°C
Wind Press
QNH
hPa
Press
MSL
hPa
Rain
since 9 am
mm
Dir
 
Spd
km/h
Gust
km/h
Spd
kts
Gust
kts
24/11:30pm 15.7 15.0 11.5 76 2.3 NE 6 7 3 4 1022.4 1020.9 0.0
24/11:00pm 16.2 15.5 12.0 76 2.3 E 7 9 4 5 1022.9 1021.4 0.0
24/10:30pm 16.9 16.2 12.0 73 2.7 NNE 7 11 4 6 1022.9 1021.4 0.0
24/10:00pm 17.3 16.2 12.0 71 3.0 NE 9 15 5 8 1023.0 1021.5 0.0
24/09:30pm 18.1 16.3 12.1 68 3.4 NNE 13 22 7 12 1023.1 1021.6 0.0
24/09:00pm 18.9 17.2 12.6 67 3.6 NNE 13 24 7 13 1023.0 1021.5 0.0
24/08:30pm 19.3 18.5 12.8 66 3.7 NNE 9 17 5 9 1022.8 1021.3 0.0
24/08:00pm 20.1 18.5 12.8 63 4.2 NNE 13 22 7 12 1022.5 1021.0 0.0
24/07:30pm 21.2 19.7 13.1 60 4.7 NNE 13 24 7 13 1021.9 1020.4 0.0
24/07:00pm 22.1 20.9 12.9 56 5.3 NE 11 22 6 12 1021.0 1019.5 0.0
24/06:30pm 23.3 21.6 12.6 51 6.2 ENE 13 26 7 14 1020.6 1019.1 0.0
24/06:00pm 24.8 23.0 12.1 45 7.4 ENE 13 22 7 12 1020.1 1018.6 0.0
24/05:30pm 26.5 23.5 10.6 37 9.1 NE 17 26 9 14 1019.4 1017.8 0.0
24/05:00pm 28.3 24.6 8.1 28 11.2 E 17 26 9 14 1019.2 1017.6 0.0
24/04:30pm 29.0 25.2 7.6 26 11.8 E 17 26 9 14 1018.9 1017.3 0.0
24/04:00pm 29.0 26.0 7.6 26 11.8 ENE 13 20 7 11 1018.6 1017.1 0.0
24/03:30pm 29.5 25.9 8.5 27 11.8 E 17 26 9 14 1018.6 1017.1 0.0
24/03:00pm 29.8 28.2 8.8 27 11.8 SE 7 32 4 17 1018.6 1017.1 0.0
24/02:30pm 30.1 27.4 9.1 27 11.9 E 13 20 7 11 1019.1 1017.5 0.0
24/02:00pm 29.7 27.5 9.3 28 11.6 ESE 11 20 6 11 1019.5 1017.9 0.0
24/01:30pm 28.8 25.6 8.5 28 11.3 ESE 15 24 8 13 1020.0 1018.5 0.0
24/01:00pm 28.9 25.2 9.6 30 11.0 E 19 28 10 15 1020.4 1018.9 0.0
24/12:30pm 29.0 26.9 11.1 33 10.4 SSE 13 24 7 13 1020.9 1019.4 0.0
24/12:00pm 26.6 24.9 9.9 35 9.4 E 9 17 5 9 1021.6 1020.0 0.0
24/11:30am 26.0 24.7 9.8 36 9.1 S 7 13 4 7 1022.0 1020.5 0.0
24/11:00am 25.8 24.6 11.6 41 8.2 SSE 9 15 5 8 1022.4 1020.9 0.0
24/10:30am 25.3 24.3 12.2 44 7.7 NE 9 17 5 9 1022.9 1021.4 0.0
24/10:00am 22.8 21.2 11.5 49 6.4 NW 11 15 6 8 1023.3 1021.8 0.0
24/09:30am 22.0 20.5 12.0 53 5.7 NW 11 15 6 8 1023.8 1022.2 0.0
24/09:00am 21.1 20.3 11.7 55 5.3 N 7 15 4 8 1024.0 1022.5 0.0
24/08:30am 19.9 18.6 11.1 57 4.9 N 9 15 5 8 1024.2 1022.7 0.0
24/08:00am 18.7 17.3 12.2 66 3.7 NNW 11 19 6 10 1024.2 1022.7 0.0
24/07:30am 17.6 16.5 12.1 70 3.1 N 9 15 5 8 1023.9 1022.4 0.0
24/07:00am 16.5 16.8 12.1 75 2.5 W 2 9 1 5 1023.7 1022.1 0.0
24/06:30am 14.8 14.2 11.8 82 1.7 S 6 7 3 4 1023.3 1021.8 0.0
24/06:00am 12.2 12.3 10.3 88 1.0 CALM 0 0 0 0 1022.7 1021.2 0.0
24/05:30am 11.0 10.5 9.3 89 0.9 SE 2 7 1 4 1022.5 1021.0 0.0
24/05:00am 10.8 10.0 8.2 84 1.3 E 2 7 1 4 1022.2 1020.7 0.0
24/04:30am 11.6 11.1 9.5 87 1.1 SE 2 7 1 4 1021.9 1020.4 0.0
24/04:00am 11.2 9.8 9.6 90 0.8 S 7 9 4 5 1022.0 1020.5 0.0
24/03:30am 12.6 12.7 10.3 86 1.2 CALM 0 6 0 3 1021.6 1020.0 0.0
24/03:00am 13.0 12.0 10.2 83 1.5 ENE 6 7 3 4 1021.5 1019.9 0.0
24/02:30am 13.6 13.5 10.9 84 1.5 NE 2 7 1 4 1021.6 1020.0 0.0
24/02:00am 13.9 12.8 10.1 78 2.0 E 6 7 3 4 1021.8 1020.3 0.0
24/01:30am 14.5 13.7 10.9 79 1.9 NE 6 11 3 6 1021.7 1020.1 0.0
24/01:00am 14.6 13.5 10.6 77 2.1 ENE 7 9 4 5 1021.9 1020.4 0.0
24/12:30am 14.1 12.8 9.1 72 2.6 NE 6 7 3 4 1022.2 1020.7 0.0
24/12:00am 15.1 13.9 9.5 69 2.9 NNE 6 9 3 5 1022.7 1021.2 0.0
 
Date/Time
EST
Temp
°C
App
Temp
°C
Dew
Point
Rel
Hum
%
Delta-T
°C
Wind Press
QNH
hPa
Press
MSL
hPa
Rain
since 9 am
mm
Dir
 
Spd
km/h
Gust
km/h
Spd
kts
Gust
kts
23/11:30pm 15.9 14.6 10.0 68 3.2 E 7 11 4 6 1022.7 1021.2 0.0
23/11:00pm 16.3 15.1 10.2 67 3.3 NNE 7 13 4 7 1022.9 1021.4 0.0
23/10:30pm 16.9 16.7 10.3 65 3.6 ENE 2 7 1 4 1022.7 1021.2 0.0
23/10:00pm 17.9 16.9 11.0 64 3.8 E 7 13 4 7 1022.6 1021.1 0.0
23/09:30pm 19.0 17.3 11.3 61 4.3 NNE 11 17 6 9 1022.2 1020.7 0.0
23/09:00pm 19.1 18.1 10.9 59 4.5 NE 7 13 4 7 1021.8 1020.3 0.0
23/08:30pm 20.1 19.3 11.1 56 5.0 NNE 6 11 3 6 1021.3 1019.7 0.0
23/08:00pm 21.2 20.4 11.0 52 5.7 ENE 6 11 3 6 1020.7 1019.2 0.0
23/07:30pm 22.1 20.5 10.3 47 6.6 NE 9 13 5 7 1020.1 1018.6 0.0
23/07:00pm 22.5 20.2 7.5 38 7.9 ENE 9 15 5 8 1019.6 1018.0 0.0
23/06:30pm 23.0 20.5 4.5 30 9.3 E 7 9 4 5 1019.1 1017.5 0.0
23/06:00pm 24.9 21.3 5.2 28 10.2 E 13 17 7 9 1018.8 1017.2 0.0
23/05:30pm 26.5 21.7 5.5 26 11.0 E 20 28 11 15 1018.4 1016.9 0.0
23/05:00pm 27.5 23.4 6.3 26 11.3 E 17 24 9 13 1018.2 1016.7 0.0
23/04:30pm 28.1 24.1 6.8 26 11.5 E 17 24 9 13 1017.9 1016.4 0.0
23/04:00pm 28.8 25.6 6.8 25 11.9 E 13 26 7 14 1017.7 1016.2 0.0
23/03:30pm 28.6 25.4 6.7 25 11.9 ESE 13 20 7 11 1017.7 1016.2 0.0
23/03:00pm 28.2 23.9 6.9 26 11.5 ESE 19 30 10 16 1017.9 1016.4 0.0
23/02:30pm 29.1 25.2 7.1 25 12.0 SSE 17 24 9 13 1018.2 1016.7 0.0
23/02:00pm 28.6 26.9 8.3 28 11.3 S 7 13 4 7 1018.5 1017.0 0.0
23/01:30pm 27.6 24.7 8.0 29 10.8 SE 13 24 7 13 1019.2 1017.6 0.0
23/01:00pm 27.0 24.0 7.5 29 10.6 ESE 13 26 7 14 1019.6 1018.0 0.0
23/12:30pm 27.2 24.7 8.1 30 10.5 S 11 20 6 11 1020.1 1018.6 0.0
23/12:00pm 26.5 23.6 8.0 31 10.1 SSE 13 19 7 10 1020.7 1019.2 0.0
23/11:30am 25.2 22.1 7.3 32 9.6 SSW 13 20 7 11 1021.4 1019.8 0.0
23/11:00am 24.8 22.3 8.3 35 9.0 NW 11 20 6 11 1022.0 1020.5 0.0
23/10:30am 23.9 22.1 9.5 40 8.0 E 9 15 5 8 1022.5 1021.0 0.0
23/10:00am 21.8 20.3 8.3 42 7.2 NW 6 9 3 5 1022.9 1021.4 0.0
23/09:30am 20.8 19.4 8.8 46 6.5 NE 6 9 3 5 1023.4 1021.9 0.0
23/09:00am 19.8 18.9 9.1 50 5.7 SW 4 9 2 5 1023.5 1022.0 0.0
23/08:30am 18.8 17.4 9.6 55 5.0 S 7 15 4 8 1023.7 1022.1 0.0
23/08:00am 18.6 17.1 10.4 59 4.5 E 9 13 5 7 1023.7 1022.1 0.0
23/07:30am 17.4 16.5 11.4 68 3.3 ENE 7 15 4 8 1023.5 1022.0 0.0
23/07:00am 13.8 13.3 10.8 82 1.6 SSW 4 7 2 4 1023.7 1022.1 0.0
23/06:30am 11.1 11.0 9.4 89 0.9 CALM 0 0 0 0 1023.5 1022.0 0.0
23/06:00am 8.7 8.1 7.6 93 0.5 CALM 0 6 0 3 1023.4 1021.9 0.0
23/05:30am 6.8 5.8 5.6 92 0.5 CALM 0 9 0 5 1023.1 1021.6 0.0
23/05:00am 6.8 5.7 5.1 89 0.8 CALM 0 7 0 4 1022.8 1021.3 0.0
23/04:30am 7.2 6.2 5.8 91 0.6 CALM 0 0 0 0 1022.8 1021.3 0.0
23/04:00am 7.6 6.7 6.2 91 0.7 CALM 0 0 0 0 1022.5 1021.0 0.0
23/03:30am 7.8 7.0 6.6 92 0.6 CALM 0 0 0 0 1022.6 1021.1 0.0
23/03:00am 8.3 7.6 7.1 92 0.6 CALM 0 0 0 0 1022.6 1021.1 0.0
23/02:30am 8.5 7.8 7.0 90 0.7 CALM 0 0 0 0 1022.7 1021.2 0.0
23/02:00am 8.7 8.0 7.0 89 0.8 CALM 0 0 0 0 1022.9 1021.4 0.0
23/01:30am 9.1 8.0 6.9 86 1.1 S 2 7 1 4 1022.8 1021.3 0.0
23/01:00am 10.1 8.4 8.4 89 0.8 S 7 7 4 4 1023.0 1021.5 0.0
23/12:30am 10.4 8.9 8.3 87 1.0 S 6 7 3 4 1023.3 1021.8 0.0
23/12:00am 11.0 10.6 8.4 84 1.3 CALM 0 0 0 0 1023.4 1021.9 0.0
 
Date/Time
EST
Temp
°C
App
Temp
°C
Dew
Point
Rel
Hum
%
Delta-T
°C
Wind Press
QNH
hPa
Press
MSL
hPa
Rain
since 9 am
mm
Dir
 
Spd
km/h
Gust
km/h
Spd
kts
Gust
kts
22/11:30pm 11.6 11.4 9.0 84 1.3 CALM 0 0 0 0 1023.9 1022.4 0.0
22/11:00pm 12.2 12.0 9.0 81 1.6 CALM 0 0 0 0 1024.1 1022.6 0.0
22/10:30pm 12.9 12.6 8.6 75 2.2 CALM 0 0 0 0 1024.1 1022.6 0.0
22/10:00pm 13.8 12.6 9.6 76 2.2 SE 6 7 3 4 1024.1 1022.6 0.0
22/09:30pm 14.9 13.3 10.1 73 2.6 E 9 13 5 7 1024.1 1022.6 0.0
22/09:00pm 15.7 14.4 9.8 68 3.1 ENE 7 13 4 7 1024.2 1022.7 0.0
22/08:30pm 16.6 14.2 10.2 66 3.5 E 13 20 7 11 1023.8 1022.2 0.0
22/08:00pm 17.3 16.1 9.5 60 4.2 ENE 6 9 3 5 1023.4 1021.9 0.0
22/07:30pm 17.7 14.7 9.3 58 4.5 ESE 15 20 8 11 1022.9 1021.4 0.0
22/07:00pm 18.6 15.4 8.3 51 5.4 ESE 15 20 8 11 1022.6 1021.1 0.0
22/06:30pm 19.7 16.7 7.8 46 6.3 ESE 13 19 7 10 1022.4 1020.9 0.0
22/06:00pm 21.1 17.7 7.7 42 7.1 E 15 20 8 11 1022.2 1020.7 0.0
22/05:30pm 22.2 18.3 7.2 38 7.9 ESE 17 24 9 13 1022.0 1020.5 0.0
22/05:00pm 23.2 19.3 7.3 36 8.4 ESE 17 26 9 14 1021.7 1020.1 0.0
22/04:30pm 24.1 19.8 7.7 35 8.8 ESE 20 30 11 16 1021.5 1019.9 0.0
22/04:00pm 24.4 21.4 7.5 34 9.0 SSE 13 17 7 9 1021.5 1019.9 0.0
22/03:30pm 24.7 20.9 7.4 33 9.3 S 17 22 9 12 1021.5 1019.9 0.0
22/03:00pm 23.2 18.9 6.9 35 8.6 SSE 19 28 10 15 1021.6 1020.0 0.0
22/02:30pm 24.2 20.4 7.4 34 9.0 SE 17 26 9 14 1021.9 1020.4 0.0
22/02:00pm 23.2 19.4 8.9 40 7.8 E 19 28 10 15 1022.2 1020.7 0.0
22/01:30pm 22.8 19.7 8.9 41 7.6 ESE 15 24 8 13 1022.7 1021.2 0.0
22/01:00pm 23.2 20.8 9.9 43 7.4 E 13 20 7 11 1023.1 1021.6 0.0
22/12:30pm 22.1 19.4 8.9 43 7.2 ESE 13 17 7 9 1023.5 1022.0 0.0
22/12:00pm 22.0 18.2 9.2 44 7.0 E 19 26 10 14 1024.0 1022.5 0.0
22/11:30am 21.3 17.8 8.9 45 6.7 SE 17 26 9 14 1024.7 1023.2 0.0
22/11:00am 21.3 18.9 10.2 49 6.1 ESE 13 22 7 12 1025.2 1023.7 0.0
22/10:30am 20.2 16.5 10.3 53 5.5 E 20 24 11 13 1025.5 1024.0 0.0
22/10:00am 18.9 15.1 9.7 55 5.0 ESE 20 35 11 19 1025.9 1024.5 0.0
22/09:30am 18.9 14.9 10.5 58 4.6 ESE 22 32 12 17 1026.2 1024.7 0.0
22/09:00am 17.9 14.5 10.5 62 4.0 ESE 19 35 10 19 1026.3 1024.8 0.0

Other Formats:

Comma delimited format used in spreadsheet applications
http://www.bom.gov.au/fwo/IDQ60801/IDQ60801.94549.axf

JavaScript Object Notation format (JSON) in row-major order
http://www.bom.gov.au/fwo/IDQ60801/IDQ60801.94549.json